LAN707 LEMD-SCEL
Flight info
| Callsign | LAN707 |
|---|---|
| Flight time | N/A |
| Altitude | 30000 |
| Route | BARDI DCT RIVRO/N0491F340 DCT DETOX/M086F340 DCT 3930N02000W 35N030W/M086F360 30N035W 25N040W DCT QUETN/N0504F360 DCT 15N047W 10N050W/N0495F380 DCT CYR UL306 NISKI DCT GEKUB DCT DEMIT DCT BUVAG/N0489F400 DCT ILRES UL322 SAL/N0484F410 UW5 PONPI UT681 PUBER/N0488F400 UM799 ASIMO ASIMO5C |
| Aircraft | B789/H-SDE1E2E3FGHIJ2J3J4J5M1RWXY/LB1D1 |
Departure
| Time | 2026-05-06 04:45 |
|---|---|
| Airport | Adolfo Suárez Madrid–Barajas Airport (LEMD) |
Arrival
| Time | N/A |
|---|---|
| Airport | Comodoro Arturo Merino Benítez International Airport (SCEL) |
| Time | Latitude | Longitude | Altitude | Speed | Heading |
|---|---|---|---|---|---|
| 2026-05-06 04:26 | 40.49538 | -3.56870 | 1977 ft | 0 kts | 87° |
| 2026-05-06 04:36 | 40.49538 | -3.56880 | 1977 ft | 4 kts | 87° |
| 2026-05-06 04:36 | 40.49537 | -3.56915 | 1977 ft | 4 kts | 88° |
| 2026-05-06 04:36 | 40.49536 | -3.56951 | 1978 ft | 4 kts | 88° |
| 2026-05-06 04:37 | 40.49537 | -3.56979 | 1979 ft | 4 kts | 110° |
| 2026-05-06 04:37 | 40.49547 | -3.56998 | 1983 ft | 5 kts | 159° |
| 2026-05-06 04:37 | 40.49572 | -3.57003 | 1983 ft | 4 kts | 180° |
| 2026-05-06 04:37 | 40.49583 | -3.57003 | 1982 ft | 1 kts | 180° |
| 2026-05-06 04:40 | 40.49582 | -3.57003 | 1982 ft | 0 kts | 180° |
| 2026-05-06 04:40 | 40.49563 | -3.57003 | 1985 ft | 5 kts | 181° |
| 2026-05-06 04:41 | 40.49511 | -3.57004 | 1984 ft | 10 kts | 181° |
| 2026-05-06 04:41 | 40.49432 | -3.57004 | 1983 ft | 13 kts | 179° |
| 2026-05-06 04:41 | 40.49334 | -3.57006 | 1984 ft | 14 kts | 188° |
| 2026-05-06 04:41 | 40.49291 | -3.57073 | 1986 ft | 7 kts | 265° |
| 2026-05-06 04:42 | 40.49287 | -3.57147 | 1985 ft | 10 kts | 266° |
| 2026-05-06 04:42 | 40.49250 | -3.57230 | 1989 ft | 11 kts | 208° |
| 2026-05-06 04:42 | 40.49175 | -3.57229 | 1991 ft | 12 kts | 176° |
| 2026-05-06 04:42 | 40.49086 | -3.57253 | 1992 ft | 13 kts | 232° |
| 2026-05-06 04:43 | 40.49104 | -3.57359 | 1992 ft | 14 kts | 307° |
| 2026-05-06 04:43 | 40.49174 | -3.57439 | 1991 ft | 14 kts | 334° |
| 2026-05-06 04:43 | 40.49290 | -3.57454 | 1989 ft | 17 kts | 2° |
| 2026-05-06 04:43 | 40.49317 | -3.57453 | 1988 ft | 0 kts | 1° |
| 2026-05-06 04:44 | 40.49343 | -3.57453 | 1988 ft | 18 kts | 0° |
| 2026-05-06 04:44 | 40.49670 | -3.57454 | 1990 ft | 76 kts | 359° |
| 2026-05-06 04:44 | 40.50373 | -3.57459 | 1996 ft | 127 kts | 360° |
| 2026-05-06 04:45 | 40.51422 | -3.57468 | 2004 ft | 170 kts | 360° |
| 2026-05-06 04:45 | 40.52671 | -3.57478 | 2276 ft | 182 kts | 357° |
| 2026-05-06 04:45 | 40.53937 | -3.57513 | 2756 ft | 187 kts | 359° |
| 2026-05-06 04:45 | 40.55297 | -3.57432 | 3051 ft | 199 kts | 8° |
| 2026-05-06 04:46 | 40.56634 | -3.56941 | 3545 ft | 199 kts | 17° |
| 2026-05-06 04:46 | 40.57958 | -3.56392 | 3836 ft | 208 kts | 16° |
| 2026-05-06 04:46 | 40.59410 | -3.55842 | 3956 ft | 225 kts | 15° |
| 2026-05-06 04:46 | 40.60937 | -3.55279 | 4390 ft | 229 kts | 15° |
| 2026-05-06 04:47 | 40.62479 | -3.54702 | 4888 ft | 232 kts | 15° |
| 2026-05-06 04:47 | 40.64090 | -3.54184 | 5133 ft | 247 kts | 6° |
| 2026-05-06 04:47 | 40.65872 | -3.54077 | 5385 ft | 264 kts | 2° |
| 2026-05-06 04:47 | 40.67727 | -3.53976 | 5904 ft | 268 kts | 356° |
| 2026-05-06 04:48 | 40.69474 | -3.54818 | 6315 ft | 271 kts | 322° |
| 2026-05-06 04:48 | 40.70725 | -3.56631 | 6879 ft | 271 kts | 295° |
| 2026-05-06 04:48 | 40.71231 | -3.58990 | 7553 ft | 266 kts | 281° |
| 2026-05-06 04:48 | 40.71388 | -3.61419 | 7967 ft | 272 kts | 259° |